Albany Center, Vermont
Current Conditions -  °F | °C
As of 8:15 AM on Friday 19 Dec 2014 (Local Time) from KEFK Reporting Station
Haze Haze  
Wind Chill: 15°   Ceiling: 1000
Heat Index: 23°   Visibility: 5mi
Dew Point: 20°   Wind: 7mph
Humidity: 89%   Direction: 310°NW
Pressure: 29.97"   Gusts: NA
Location:  44.8143°N, 72.284°W
Report Text: KEFK 191315Z AUTO 31006KT 5SM BR BKN010 OVC019 M05/M06 A2997 RMK AO2 T10501065
Loading
Personal Weather Stations






























Interactive Weather Map New forecast layout! Learn more

10-Day Weather Forecast

Advertisements
Track Severe Weather on mobile